Terminal Aerodrome Forecast
Issued by NWS

Home | Current Version | Previous Version | Graphics & Text | Print | Product List | Glossary On
Versions: 1 2 3 4 5 6 7 8 9 10 11 12 13 14 15 16 17 18 19 20 21 22 23 24 25 26 27 28 29
597
FTUS43 KLOT 241509 AAA
TAFORD
TAF AMD
KORD 241509Z 2415/2518 21013G20KT P6SM SCT100 BKN200
     FM241930 24014G21KT P6SM VCTS BKN040CB
     FM242200 26012G20KT P6SM SCT025
     FM250000 29008KT P6SM BKN200
     FM250600 30007KT P6SM SCT200=

USA.gov is the U.S. government's official web portal to all federal, state and local government web resources and services.